createdAt,value
2018-04-30T00:00:14.881Z,16.67
2018-04-30T00:02:43.411Z,15.50
2018-04-30T00:05:11.028Z,15.97
2018-04-30T00:07:39.467Z,14.23
2018-04-30T00:10:07.142Z,15.83
2018-04-30T00:12:35.532Z,15.30
2018-04-30T00:15:03.207Z,17.02
2018-04-30T00:17:31.650Z,15.53
2018-04-30T00:19:59.333Z,15.45
2018-04-30T00:22:27.000Z,15.60
2018-04-30T00:24:54.733Z,15.50
2018-04-30T00:27:22.421Z,16.03
2018-04-30T00:29:50.160Z,18.70
2018-04-30T00:32:17.796Z,15.53
2018-04-30T00:34:45.511Z,15.70
2018-04-30T00:37:13.195Z,15.18
2018-04-30T00:39:41.611Z,14.90
2018-04-30T00:42:09.322Z,19.53
2018-04-30T00:44:36.975Z,16.00
2018-04-30T00:47:04.626Z,15.10
2018-04-30T00:49:32.405Z,16.60
2018-04-30T00:52:00.144Z,14.63
2018-04-30T00:54:39.889Z,16.85
2018-04-30T00:57:07.524Z,15.97
2018-04-30T00:59:35.246Z,16.43
2018-04-30T01:02:03.725Z,15.60
2018-04-30T01:04:31.382Z,14.87
2018-04-30T01:06:59.153Z,16.13
2018-04-30T01:09:26.816Z,15.00
2018-04-30T01:11:54.435Z,14.83
2018-04-30T01:14:22.256Z,18.30
2018-04-30T01:16:50.795Z,16.45
2018-04-30T01:19:18.501Z,14.80
2018-04-30T01:21:46.531Z,15.90
2018-04-30T01:24:14.295Z,13.93
2018-04-30T01:26:42.161Z,14.10
2018-04-30T01:29:09.925Z,14.73
2018-04-30T01:31:37.617Z,13.33
2018-04-30T01:34:05.260Z,12.57
2018-04-30T01:36:33.104Z,13.60
2018-04-30T01:39:00.822Z,14.43
2018-04-30T01:41:29.246Z,15.13
2018-04-30T01:43:56.975Z,12.70
2018-04-30T01:46:24.634Z,14.37
2018-04-30T01:48:53.063Z,14.17
2018-04-30T01:51:20.757Z,16.37
2018-04-30T01:53:48.468Z,16.40
2018-04-30T01:56:16.102Z,14.80
2018-04-30T01:58:44.507Z,15.10
2018-04-30T02:01:12.231Z,10.67
2018-04-30T02:03:39.963Z,16.70
2018-04-30T02:06:09.180Z,13.88
2018-04-30T02:08:36.832Z,14.87
2018-04-30T02:11:04.469Z,12.40
2018-04-30T02:13:32.179Z,15.43
2018-04-30T02:15:59.869Z,17.50
2018-04-30T02:18:28.496Z,14.17
2018-04-30T02:20:56.361Z,15.33
2018-04-30T02:23:24.787Z,19.12
2018-04-30T02:25:53.205Z,14.43
2018-04-30T02:28:20.908Z,20.47
2018-04-30T02:30:48.662Z,15.20
2018-04-30T02:33:16.425Z,17.13
2018-04-30T02:35:44.196Z,15.90
2018-04-30T02:38:12.061Z,12.83
2018-04-30T02:40:39.752Z,13.63
2018-04-30T02:43:08.236Z,16.27
2018-04-30T02:45:36.685Z,13.63
2018-04-30T02:48:04.347Z,13.07
2018-04-30T02:50:32.141Z,13.37
2018-04-30T02:52:59.781Z,14.52
2018-04-30T02:55:27.469Z,14.07
2018-04-30T02:57:56.007Z,16.53
2018-04-30T03:00:23.777Z,15.00
2018-04-30T03:02:51.452Z,16.60
2018-04-30T03:05:19.306Z,15.67
2018-04-30T03:07:46.981Z,12.57
2018-04-30T03:10:14.769Z,15.30
2018-04-30T03:12:43.203Z,14.57
2018-04-30T03:15:10.850Z,16.53
2018-04-30T03:17:38.643Z,12.93
2018-04-30T03:20:06.406Z,10.32
2018-04-30T03:22:34.171Z,14.83
2018-04-30T03:25:01.828Z,12.90
2018-04-30T03:27:29.596Z,13.47
2018-04-30T03:29:57.256Z,12.60
2018-04-30T03:32:24.958Z,13.27
2018-04-30T03:34:53.523Z,11.03
2018-04-30T03:37:21.157Z,11.70
2018-04-30T03:39:48.933Z,14.00
2018-04-30T03:42:16.800Z,13.38
2018-04-30T03:44:44.564Z,14.03
2018-04-30T03:47:12.243Z,15.30
2018-04-30T03:49:39.953Z,15.93
2018-04-30T03:52:07.654Z,15.97
2018-04-30T03:54:35.353Z,14.07
2018-04-30T03:57:03.799Z,17.23
2018-04-30T03:59:31.435Z,13.07
2018-04-30T04:02:11.104Z,11.47
2018-04-30T04:04:50.703Z,11.90
2018-04-30T04:07:18.451Z,15.97
2018-04-30T04:09:46.929Z,12.67
2018-04-30T04:12:14.655Z,13.80
2018-04-30T04:14:42.312Z,15.07
2018-04-30T04:17:10.062Z,18.70
2018-04-30T04:19:37.739Z,19.17
2018-04-30T04:22:05.404Z,13.20
2018-04-30T04:24:33.937Z,12.87
2018-04-30T04:27:02.780Z,11.98
2018-04-30T04:29:30.495Z,15.63
2018-04-30T04:32:00.054Z,12.97
2018-04-30T04:34:27.664Z,15.30
2018-04-30T04:36:56.091Z,14.30
2018-04-30T04:39:23.771Z,15.57
2018-04-30T04:41:51.517Z,15.07
2018-04-30T04:44:19.143Z,12.97
2018-04-30T04:46:47.738Z,16.13
2018-04-30T04:49:15.401Z,15.80
2018-04-30T04:51:43.040Z,18.40
2018-04-30T04:54:11.482Z,15.10
2018-04-30T04:56:39.164Z,13.27
2018-04-30T04:59:07.568Z,16.98
2018-04-30T05:01:36.198Z,14.57
2018-04-30T05:04:03.824Z,17.23
2018-04-30T05:06:31.675Z,16.03
2018-04-30T05:09:00.114Z,18.10
2018-04-30T05:11:27.868Z,12.50
2018-04-30T05:13:55.566Z,15.90
2018-04-30T05:16:24.015Z,12.40
2018-04-30T05:18:51.674Z,12.93
2018-04-30T05:21:19.369Z,14.30
2018-04-30T05:23:47.790Z,12.10
2018-04-30T05:26:15.450Z,14.03
2018-04-30T05:28:43.249Z,14.70
2018-04-30T05:31:10.956Z,13.03
2018-04-30T05:33:39.340Z,17.17
2018-04-30T05:36:07.817Z,17.33
2018-04-30T05:38:36.357Z,10.70
2018-04-30T05:41:04.050Z,11.17
2018-04-30T05:43:31.827Z,18.43
2018-04-30T05:46:00.293Z,12.82
2018-04-30T05:48:27.932Z,15.40
2018-04-30T05:50:55.619Z,13.90
2018-04-30T05:53:24.064Z,14.17
2018-04-30T05:55:51.736Z,17.97
2018-04-30T05:58:19.498Z,14.83
2018-04-30T06:00:47.124Z,12.33
2018-04-30T06:03:14.924Z,21.47
2018-04-30T06:05:42.726Z,11.43
2018-04-30T06:08:11.272Z,14.00
2018-04-30T06:10:38.940Z,11.97
2018-04-30T06:13:06.559Z,14.20
2018-04-30T06:15:34.935Z,13.17
2018-04-30T06:18:04.285Z,16.97
2018-04-30T06:20:31.972Z,14.60
2018-04-30T06:22:59.804Z,11.53
2018-04-30T06:25:27.568Z,12.23
2018-04-30T06:27:56.058Z,12.73
2018-04-30T06:30:23.849Z,16.93
2018-04-30T06:32:52.500Z,11.80
2018-04-30T06:35:20.159Z,15.67
2018-04-30T06:37:47.848Z,14.85
2018-04-30T06:40:15.507Z,13.37
2018-04-30T06:42:43.252Z,13.00
2018-04-30T06:45:10.934Z,15.47
2018-04-30T06:47:38.679Z,14.23
2018-04-30T06:50:06.277Z,17.93
2018-04-30T06:52:33.902Z,12.47
2018-04-30T06:55:01.671Z,12.30
2018-04-30T06:57:29.325Z,12.30
2018-04-30T06:59:56.947Z,11.17
2018-04-30T07:02:25.383Z,18.87
2018-04-30T07:04:53.133Z,16.17
2018-04-30T07:07:20.783Z,18.47
2018-04-30T07:09:48.591Z,16.77
2018-04-30T07:12:16.253Z,11.13
2018-04-30T07:14:43.870Z,11.10
2018-04-30T07:17:11.552Z,11.23
2018-04-30T07:19:39.203Z,12.32
2018-04-30T07:22:06.909Z,15.00
2018-04-30T07:24:34.639Z,11.60
2018-04-30T07:27:02.439Z,13.00
2018-04-30T07:29:30.918Z,11.60
2018-04-30T07:31:58.650Z,14.63
2018-04-30T07:34:26.321Z,10.50
2018-04-30T07:36:54.004Z,9.23
2018-04-30T07:39:21.726Z,10.57
2018-04-30T07:41:49.437Z,8.77
2018-04-30T07:44:17.891Z,11.48
2018-04-30T07:46:45.558Z,14.50
2018-04-30T07:49:13.222Z,9.95
2018-04-30T07:51:40.897Z,13.77
2018-04-30T07:54:08.564Z,12.68
2018-04-30T07:56:36.401Z,15.25
2018-04-30T07:59:04.097Z,10.88
2018-04-30T08:01:31.858Z,12.33
2018-04-30T08:04:00.093Z,14.36
2018-04-30T08:06:27.755Z,12.80
2018-04-30T08:08:55.537Z,12.82
2018-04-30T08:11:23.170Z,11.67
2018-04-30T08:13:50.881Z,13.53
2018-04-30T08:16:18.562Z,12.10
2018-04-30T08:18:46.183Z,10.80
2018-04-30T08:21:13.845Z,12.27
2018-04-30T08:23:41.510Z,11.27
2018-04-30T08:26:09.271Z,12.30
2018-04-30T08:28:36.933Z,11.30
2018-04-30T08:31:04.601Z,10.97
2018-04-30T08:33:32.271Z,7.07
2018-04-30T08:35:59.919Z,9.83
2018-04-30T08:38:27.538Z,11.97
2018-04-30T08:40:55.963Z,16.03
2018-04-30T08:43:23.577Z,10.33
2018-04-30T08:45:52.033Z,12.20
2018-04-30T08:48:19.764Z,9.93
2018-04-30T08:50:47.532Z,6.50
2018-04-30T08:53:15.147Z,9.10
2018-04-30T08:55:42.761Z,5.67
2018-04-30T08:58:10.473Z,5.93
2018-04-30T09:00:38.158Z,5.77
2018-04-30T09:03:06.591Z,10.05
2018-04-30T09:05:34.429Z,5.80
2018-04-30T09:08:02.060Z,16.70
2018-04-30T09:10:29.785Z,3.55
2018-04-30T09:12:57.441Z,11.97
2018-04-30T09:15:25.947Z,5.43
2018-04-30T09:17:54.480Z,4.47
2018-04-30T09:20:22.112Z,3.73
2018-04-30T09:22:49.775Z,4.73
2018-04-30T09:25:17.556Z,2.90
2018-04-30T09:27:45.256Z,2.27
2018-04-30T09:30:13.735Z,2.57
2018-04-30T09:32:41.479Z,7.00
2018-04-30T09:35:09.161Z,5.80
2018-04-30T09:37:36.780Z,5.87
2018-04-30T09:40:04.502Z,5.87
2018-04-30T09:42:32.183Z,8.80
2018-04-30T09:45:00.636Z,4.93
2018-04-30T09:47:28.377Z,4.87
2018-04-30T09:49:56.140Z,3.43
2018-04-30T09:52:24.007Z,4.75
2018-04-30T09:54:51.708Z,8.20
2018-04-30T09:57:20.137Z,4.30
2018-04-30T09:59:47.843Z,3.60
2018-04-30T10:02:15.578Z,1.87
2018-04-30T10:04:43.193Z,3.87
2018-04-30T10:07:11.643Z,3.53
2018-04-30T10:09:39.522Z,1.50
2018-04-30T10:12:07.211Z,4.83
2018-04-30T10:14:34.942Z,2.90
2018-04-30T10:17:02.564Z,3.00
2018-04-30T10:19:30.265Z,2.70
2018-04-30T10:21:58.105Z,4.20
2018-04-30T10:24:25.721Z,6.90
2018-04-30T10:26:54.129Z,5.90
2018-04-30T10:29:21.822Z,7.65
2018-04-30T10:31:50.395Z,2.73
2018-04-30T10:34:18.803Z,3.72
2018-04-30T10:36:46.497Z,2.93
2018-04-30T10:39:14.302Z,2.53
2018-04-30T10:41:42.019Z,5.07
2018-04-30T10:44:09.691Z,3.93
2018-04-30T10:46:37.310Z,3.10
2018-04-30T10:49:04.971Z,4.63
2018-04-30T10:51:32.660Z,2.47
2018-04-30T10:54:01.130Z,1.73
2018-04-30T10:56:28.861Z,4.00
2018-04-30T10:58:56.487Z,3.67
2018-04-30T11:01:24.292Z,1.58
2018-04-30T11:03:52.159Z,2.90
2018-04-30T11:06:19.934Z,4.00
2018-04-30T11:08:47.551Z,3.40
2018-04-30T11:11:15.215Z,4.13
2018-04-30T11:13:43.618Z,2.80
2018-04-30T11:16:11.242Z,1.17
2018-04-30T11:18:38.939Z,3.83
2018-04-30T11:21:06.712Z,2.97
2018-04-30T11:23:34.393Z,3.60
2018-04-30T11:26:02.068Z,2.75
2018-04-30T11:28:30.447Z,2.50
2018-04-30T11:30:58.120Z,0.97
2018-04-30T11:33:26.590Z,2.85
2018-04-30T11:35:55.452Z,1.73
2018-04-30T11:38:24.752Z,1.57
2018-04-30T11:40:52.520Z,1.10
2018-04-30T11:43:21.101Z,1.90
2018-04-30T11:45:49.325Z,1.43
2018-04-30T11:48:17.856Z,9.53
2018-04-30T11:50:45.471Z,1.87
2018-04-30T11:53:14.827Z,1.50
2018-04-30T11:55:42.488Z,2.13
2018-04-30T11:58:10.250Z,1.50
2018-04-30T12:00:38.015Z,0.97
2018-04-30T12:03:05.639Z,2.43
2018-04-30T12:05:33.441Z,0.60
2018-04-30T12:08:01.136Z,1.83
2018-04-30T12:10:29.628Z,1.20
2018-04-30T12:12:58.096Z,2.13
2018-04-30T12:15:26.582Z,3.43
2018-04-30T12:17:55.020Z,2.97
2018-04-30T12:20:22.660Z,2.70
2018-04-30T12:22:50.458Z,0.93
2018-04-30T12:25:18.253Z,1.07
2018-04-30T12:27:46.725Z,5.43
2018-04-30T12:30:14.412Z,6.87
2018-04-30T12:32:42.836Z,4.63
2018-04-30T12:35:10.614Z,1.70
2018-04-30T12:37:38.386Z,1.27
2018-04-30T12:40:06.027Z,1.37
2018-04-30T12:42:33.680Z,0.65
2018-04-30T12:45:01.466Z,1.08
2018-04-30T12:47:29.333Z,0.73
2018-04-30T12:49:56.990Z,0.70
2018-04-30T12:52:24.762Z,1.10
2018-04-30T12:54:52.448Z,4.70
2018-04-30T12:57:21.007Z,3.43
2018-04-30T12:59:49.693Z,0.60
2018-04-30T13:02:17.333Z,2.57
2018-04-30T13:04:45.049Z,0.83
2018-04-30T13:07:13.500Z,2.08
2018-04-30T13:09:41.119Z,2.30
2018-04-30T13:12:08.941Z,2.47
2018-04-30T13:14:37.371Z,2.55
2018-04-30T13:17:05.003Z,1.30
2018-04-30T13:19:32.761Z,0.67
2018-04-30T13:22:00.425Z,3.70
2018-04-30T13:24:28.189Z,2.00
2018-04-30T13:26:56.588Z,1.23
2018-04-30T13:29:24.970Z,2.97
2018-04-30T13:31:53.617Z,3.13
2018-04-30T13:34:21.408Z,1.10
2018-04-30T13:36:49.964Z,1.87
2018-04-30T13:39:17.612Z,0.60
2018-04-30T13:41:45.274Z,3.15
2018-04-30T13:44:12.924Z,0.90
2018-04-30T13:46:40.636Z,2.30
2018-04-30T13:49:09.085Z,1.07
2018-04-30T13:51:36.889Z,0.80
2018-04-30T13:54:05.275Z,3.13
2018-04-30T13:56:33.823Z,0.50
2018-04-30T13:59:01.579Z,2.62
2018-04-30T14:01:29.346Z,1.43
2018-04-30T14:03:57.001Z,0.93
2018-04-30T14:06:24.677Z,0.87
2018-04-30T14:08:52.337Z,3.00
2018-04-30T14:11:19.941Z,1.00
2018-04-30T14:13:48.482Z,0.62
2018-04-30T14:16:16.349Z,0.47
2018-04-30T14:18:44.006Z,0.90
2018-04-30T14:21:11.878Z,0.70
2018-04-30T14:23:39.644Z,0.60
2018-04-30T14:26:07.299Z,3.10
2018-04-30T14:28:35.064Z,3.40
2018-04-30T14:31:02.716Z,2.27
2018-04-30T14:33:30.431Z,1.30
2018-04-30T14:35:58.978Z,1.98
2018-04-30T14:38:26.829Z,1.60
2018-04-30T14:40:55.171Z,1.90
2018-04-30T14:43:23.733Z,1.02
2018-04-30T14:45:51.401Z,0.77
2018-04-30T14:48:19.989Z,1.47
2018-04-30T14:50:47.635Z,2.55
2018-04-30T14:53:15.301Z,0.80
2018-04-30T14:55:43.144Z,1.23
2018-04-30T14:58:10.933Z,1.20
2018-04-30T15:00:38.769Z,2.07
2018-04-30T15:03:06.534Z,0.67
2018-04-30T15:05:34.217Z,1.33
2018-04-30T15:08:01.823Z,0.80
2018-04-30T15:10:29.467Z,1.33
2018-04-30T15:12:57.839Z,2.17
2018-04-30T15:15:25.671Z,2.95
2018-04-30T15:17:53.471Z,2.83
2018-04-30T15:20:21.906Z,2.33
2018-04-30T15:22:49.696Z,1.53
2018-04-30T15:25:17.549Z,2.50
2018-04-30T15:27:45.236Z,1.20
2018-04-30T15:30:13.005Z,2.43
2018-04-30T15:32:40.624Z,0.90
2018-04-30T15:35:08.275Z,1.87
2018-04-30T15:37:35.989Z,2.97
2018-04-30T15:40:03.731Z,1.47
2018-04-30T15:42:31.503Z,1.73
2018-04-30T15:44:59.165Z,1.87
2018-04-30T15:47:26.764Z,2.20
2018-04-30T15:49:55.237Z,1.10
2018-04-30T15:52:23.619Z,2.23
2018-04-30T15:54:52.370Z,1.93
2018-04-30T15:57:19.996Z,1.73
2018-04-30T15:59:47.636Z,0.88
2018-04-30T16:02:16.195Z,1.40
2018-04-30T16:04:43.940Z,3.50
2018-04-30T16:07:11.808Z,1.83
2018-04-30T16:09:39.605Z,1.65
2018-04-30T16:12:08.282Z,3.23
2018-04-30T16:14:36.796Z,1.13
2018-04-30T16:17:06.036Z,1.07
2018-04-30T16:19:33.908Z,2.53
2018-04-30T16:22:01.596Z,4.60
2018-04-30T16:24:29.297Z,1.55
2018-04-30T16:26:56.903Z,4.57
2018-04-30T16:29:24.559Z,2.57
2018-04-30T16:31:52.217Z,1.60
2018-04-30T16:34:19.983Z,3.20
2018-04-30T16:36:47.748Z,1.97
2018-04-30T16:39:15.503Z,2.53
2018-04-30T16:41:43.237Z,2.70
2018-04-30T16:44:10.934Z,2.37
2018-04-30T16:46:38.552Z,2.20
2018-04-30T16:49:07.104Z,1.83
2018-04-30T16:51:35.774Z,1.80
2018-04-30T16:54:03.557Z,3.47
2018-04-30T16:56:31.985Z,1.80
2018-04-30T16:58:59.646Z,2.37
2018-04-30T17:01:27.362Z,2.23
2018-04-30T17:03:55.807Z,2.13
2018-04-30T17:06:23.458Z,3.10
2018-04-30T17:08:51.114Z,3.70
2018-04-30T17:11:18.795Z,3.03
2018-04-30T17:13:46.564Z,4.90
2018-04-30T17:16:14.570Z,3.33
2018-04-30T17:18:42.405Z,2.23
2018-04-30T17:21:10.030Z,2.28
2018-04-30T17:23:38.458Z,4.40
2018-04-30T17:26:06.258Z,1.40
2018-04-30T17:28:34.741Z,2.58
2018-04-30T17:31:03.134Z,3.23
2018-04-30T17:33:30.808Z,2.80
2018-04-30T17:35:58.476Z,1.40
2018-04-30T17:38:26.372Z,1.40
2018-04-30T17:40:54.109Z,2.40
2018-04-30T17:43:21.915Z,3.28
2018-04-30T17:45:50.209Z,2.28
2018-04-30T17:48:18.675Z,4.43
2018-04-30T17:50:46.423Z,3.50
2018-04-30T17:53:14.148Z,2.60
2018-04-30T17:55:41.944Z,6.47
2018-04-30T17:58:10.571Z,3.73
2018-04-30T18:00:38.960Z,3.30
2018-04-30T18:03:07.429Z,3.53
2018-04-30T18:05:35.848Z,4.80
2018-04-30T18:08:03.635Z,4.63
2018-04-30T18:10:31.504Z,4.90
2018-04-30T18:12:59.369Z,6.70
2018-04-30T18:15:27.137Z,5.12
2018-04-30T18:17:54.787Z,5.03
2018-04-30T18:20:22.480Z,3.83
2018-04-30T18:22:50.321Z,3.83
2018-04-30T18:25:18.097Z,3.90
2018-04-30T18:27:45.715Z,4.03
2018-04-30T18:30:13.392Z,3.77
2018-04-30T18:32:41.008Z,3.90
2018-04-30T18:35:08.672Z,6.60
2018-04-30T18:37:36.307Z,4.70
2018-04-30T18:40:04.064Z,5.27
2018-04-30T18:42:31.827Z,4.57
2018-04-30T18:44:59.695Z,3.97
2018-04-30T18:47:27.316Z,5.63
2018-04-30T18:49:55.699Z,7.00
2018-04-30T18:52:24.310Z,4.27
2018-04-30T18:54:51.980Z,4.97
2018-04-30T18:57:19.853Z,6.83
2018-04-30T18:59:47.649Z,5.40
2018-04-30T19:02:15.306Z,7.03
2018-04-30T19:04:43.011Z,4.87
2018-04-30T19:07:10.641Z,5.80
2018-04-30T19:09:39.291Z,5.33
2018-04-30T19:12:06.983Z,5.47
2018-04-30T19:14:34.822Z,7.37
2018-04-30T19:17:02.582Z,9.27
2018-04-30T19:19:30.361Z,8.70
2018-04-30T19:21:58.113Z,11.85
2018-04-30T19:24:25.882Z,12.63
2018-04-30T19:26:53.582Z,14.80
2018-04-30T19:29:21.987Z,13.13
2018-04-30T19:31:50.376Z,13.90
2018-04-30T19:34:18.781Z,13.53
2018-04-30T19:36:46.448Z,14.00
2018-04-30T19:39:14.068Z,13.33
2018-04-30T19:41:42.513Z,12.60
2018-04-30T19:44:10.350Z,12.93
2018-04-30T19:46:38.528Z,14.33
2018-04-30T19:49:07.125Z,11.27
2018-04-30T19:51:34.978Z,11.13
2018-04-30T19:54:02.676Z,10.03
2018-04-30T19:56:31.031Z,10.38
2018-04-30T19:58:58.750Z,10.23
2018-04-30T20:01:26.961Z,9.07
2018-04-30T20:03:56.028Z,11.17
2018-04-30T20:06:24.292Z,10.57
2018-04-30T20:08:52.346Z,10.90
2018-04-30T20:11:20.793Z,12.30
2018-04-30T20:13:48.478Z,14.23
2018-04-30T20:16:16.209Z,12.20
2018-04-30T20:18:43.974Z,15.67
2018-04-30T20:21:11.602Z,17.83
2018-04-30T20:23:39.260Z,13.10
2018-04-30T20:26:08.697Z,14.60
2018-04-30T20:28:36.362Z,16.27
2018-04-30T20:31:04.003Z,12.50
2018-04-30T20:33:31.673Z,12.03
2018-04-30T20:35:59.351Z,13.73
2018-04-30T20:38:27.001Z,15.23
2018-04-30T20:40:54.778Z,17.77
2018-04-30T20:43:22.455Z,18.83
2018-04-30T20:45:50.132Z,17.98
2018-04-30T20:48:17.868Z,16.90
2018-04-30T20:50:45.495Z,16.90
2018-04-30T20:53:13.916Z,17.23
2018-04-30T20:55:42.022Z,14.77
2018-04-30T20:58:10.594Z,15.90
2018-04-30T21:00:38.280Z,14.93
2018-04-30T21:03:06.701Z,13.97
2018-04-30T21:05:34.357Z,14.97
2018-04-30T21:08:02.166Z,14.00
2018-04-30T21:10:29.929Z,15.00
2018-04-30T21:12:57.591Z,12.70
2018-04-30T21:15:25.266Z,12.73
2018-04-30T21:17:53.737Z,12.10
2018-04-30T21:20:22.195Z,15.20
2018-04-30T21:22:49.874Z,12.50
2018-04-30T21:25:17.722Z,12.60
2018-04-30T21:27:45.340Z,12.35
2018-04-30T21:30:13.911Z,12.40
2018-04-30T21:32:43.285Z,12.43
2018-04-30T21:35:11.131Z,12.73
2018-04-30T21:37:38.902Z,11.27
2018-04-30T21:40:06.946Z,11.87
2018-04-30T21:42:34.655Z,11.27
2018-04-30T21:45:02.387Z,11.73
2018-04-30T21:47:30.173Z,10.63
2018-04-30T21:49:57.787Z,13.23
2018-04-30T21:52:25.691Z,10.80
2018-04-30T21:54:53.380Z,10.20
2018-04-30T21:57:21.160Z,11.48
2018-04-30T21:59:49.617Z,10.40
2018-04-30T22:02:17.466Z,13.10
2018-04-30T22:04:45.244Z,19.45
2018-04-30T22:07:12.900Z,24.10
2018-04-30T22:09:40.571Z,21.90
2018-04-30T22:12:08.260Z,18.33
2018-04-30T22:14:36.009Z,17.57
2018-04-30T22:17:03.672Z,14.17
2018-04-30T22:19:32.945Z,13.70
2018-04-30T22:22:00.797Z,17.50
2018-04-30T22:24:28.455Z,16.50
2018-04-30T22:26:56.134Z,14.77
2018-04-30T22:29:23.903Z,12.73
2018-04-30T22:31:51.561Z,12.57
2018-04-30T22:34:19.443Z,11.43
2018-04-30T22:36:47.168Z,11.70
2018-04-30T22:39:15.803Z,10.33
2018-04-30T22:41:43.510Z,12.77
2018-04-30T22:44:11.311Z,10.30
2018-04-30T22:46:38.927Z,10.33
2018-04-30T22:49:07.460Z,8.83
2018-04-30T22:51:35.097Z,9.70
2018-04-30T22:54:02.881Z,9.90
2018-04-30T22:56:30.572Z,7.73
2018-04-30T22:58:58.186Z,9.07
2018-04-30T23:01:25.867Z,9.53
2018-04-30T23:03:53.502Z,9.10
2018-04-30T23:06:21.226Z,8.47
2018-04-30T23:08:48.962Z,9.40
2018-04-30T23:11:16.624Z,11.70
2018-04-30T23:13:44.264Z,8.70
2018-04-30T23:16:11.989Z,8.90
2018-04-30T23:18:40.482Z,9.53
2018-04-30T23:21:08.945Z,10.87
2018-04-30T23:23:36.586Z,9.90
2018-04-30T23:26:04.206Z,11.50
2018-04-30T23:28:31.997Z,11.40
2018-04-30T23:30:59.612Z,12.67
2018-04-30T23:33:28.012Z,10.67
2018-04-30T23:35:55.678Z,11.00
2018-04-30T23:38:23.465Z,12.40
2018-04-30T23:40:51.120Z,13.23
2018-04-30T23:43:18.762Z,11.40
2018-04-30T23:45:46.408Z,12.63
2018-04-30T23:48:14.969Z,11.53
2018-04-30T23:50:43.390Z,10.80
2018-04-30T23:53:11.193Z,12.23
2018-04-30T23:55:38.945Z,13.13
2018-04-30T23:58:06.639Z,12.93
